Time;durP1;ratioP1;P1;durP2;ratioP2;P2;SDS_P1;SDS_P2;PMS_P1;PMS_P2;Temp;Humidity;BMP_temperature;BMP_pressure;BME280_temperature;BME280_humidity;BME280_pressure;Samples;Min_cycle;Max_cycle;Signal;HPM_P1;HPM_P2
2023/06/02 00:01:06;;;;;;;10.67;5.67;;;;;;;18.84;61.08;99667.44;5035625;28;20028;-75
2023/06/02 00:03:34;;;;;;;12.30;6.93;;;;;;;18.80;61.18;99664.88;5042627;28;20028;-75
2023/06/02 00:06:05;;;;;;;11.48;6.50;;;;;;;18.76;61.28;99674.00;5039944;28;20092;-75
2023/06/02 00:08:32;;;;;;;12.55;6.80;;;;;;;18.74;61.13;99667.00;5044932;28;20029;-74
2023/06/02 00:10:59;;;;;;;10.07;5.97;;;;;;;18.69;61.25;99666.34;5039788;28;20021;-75
2023/06/02 00:13:25;;;;;;;9.20;5.57;;;;;;;18.63;61.56;99673.72;5042133;28;20508;-74
2023/06/02 00:15:50;;;;;;;9.70;5.03;;;;;;;18.59;61.65;99666.78;5021963;28;20402;-75
2023/06/02 00:18:16;;;;;;;9.37;5.80;;;;;;;18.55;61.64;99662.53;5039761;28;20049;-75
2023/06/02 00:20:42;;;;;;;12.00;5.97;;;;;;;18.53;61.76;99667.09;5039619;28;20029;-75
2023/06/02 00:23:08;;;;;;;12.25;5.75;;;;;;;18.49;62.07;99665.50;5039674;28;20032;-75
2023/06/02 00:25:38;;;;;;;10.57;5.67;;;;;;;18.46;62.28;99655.00;5039347;28;20099;-74
2023/06/02 00:28:03;;;;;;;10.85;6.07;;;;;;;18.42;62.18;99658.72;5022158;28;20394;-75
2023/06/02 00:30:31;;;;;;;10.70;5.53;;;;;;;18.41;62.15;99651.66;5039166;28;20017;-74
2023/06/02 00:32:56;;;;;;;10.40;5.82;;;;;;;18.38;62.25;99649.13;5039826;28;20025;-75
2023/06/02 00:35:22;;;;;;;10.32;6.00;;;;;;;18.32;62.16;99651.16;5021687;28;20036;-75
2023/06/02 00:37:47;;;;;;;10.20;5.50;;;;;;;18.24;62.34;99642.66;5039478;28;20091;-74
2023/06/02 00:40:13;;;;;;;9.40;5.80;;;;;;;18.17;62.82;99646.50;5038871;28;20105;-73
2023/06/02 00:42:39;;;;;;;13.77;5.95;;;;;;;18.13;62.84;99648.47;5039261;28;20018;-74
2023/06/02 00:45:05;;;;;;;10.15;5.97;;;;;;;18.11;62.83;99644.13;5039041;28;20037;-74
2023/06/02 00:47:31;;;;;;;11.85;5.57;;;;;;;18.08;62.96;99639.81;5039094;28;20099;-75
2023/06/02 00:49:58;;;;;;;11.93;5.83;;;;;;;18.06;62.96;99636.34;5039248;28;20029;-75
2023/06/02 00:52:24;;;;;;;10.35;5.68;;;;;;;18.01;63.11;99638.31;5039172;28;20033;-75
2023/06/02 00:54:50;;;;;;;11.47;6.03;;;;;;;17.97;63.14;99637.63;5038996;28;20366;-74
2023/06/02 00:57:16;;;;;;;13.15;6.28;;;;;;;17.93;63.16;99636.00;5038864;28;20039;-74
2023/06/02 00:59:43;;;;;;;10.23;6.00;;;;;;;17.92;63.23;99636.94;5038985;28;20029;-74
2023/06/02 01:02:10;;;;;;;14.57;6.47;;;;;;;17.90;63.36;99630.81;5049809;28;20025;-74
2023/06/02 01:04:36;;;;;;;10.93;5.82;;;;;;;17.87;63.42;99630.94;5038744;28;20030;-73
2023/06/02 01:07:03;;;;;;;10.13;5.90;;;;;;;17.86;63.52;99634.56;5020030;28;20093;-74
2023/06/02 01:09:29;;;;;;;11.52;6.18;;;;;;;17.83;63.34;99630.22;5038636;28;20090;-74
2023/06/02 01:11:56;;;;;;;11.73;6.00;;;;;;;17.78;63.33;99638.44;5020812;28;20025;-74
2023/06/02 01:14:22;;;;;;;12.18;6.45;;;;;;;17.73;63.39;99629.78;5038711;28;20040;-74
2023/06/02 01:16:51;;;;;;;11.68;6.43;;;;;;;17.66;63.64;99633.63;5038437;28;20036;-74
2023/06/02 01:19:21;;;;;;;10.10;6.07;;;;;;;17.61;63.91;99638.28;5038741;28;20067;-73
2023/06/02 01:21:57;;;;;;;11.68;5.72;;;;;;;17.58;63.92;99636.63;5038631;28;20033;-74
2023/06/02 01:24:25;;;;;;;10.47;5.53;;;;;;;17.56;64.02;99632.31;5038367;28;20031;-75
2023/06/02 01:26:51;;;;;;;11.52;5.82;;;;;;;17.55;64.07;99638.56;5038441;28;20053;-73
2023/06/02 01:29:17;;;;;;;12.18;6.60;;;;;;;17.53;64.13;99632.44;5017285;28;20029;-74
2023/06/02 01:31:52;;;;;;;10.43;5.77;;;;;;;17.52;64.04;99636.03;5038061;28;20033;-75
2023/06/02 01:34:46;;;;;;;12.88;6.82;;;;;;;17.43;64.41;99635.50;5020507;28;20068;-74
2023/06/02 01:37:13;;;;;;;11.88;6.72;;;;;;;17.36;64.40;99634.03;5036022;28;20061;-74
2023/06/02 01:39:40;;;;;;;12.77;6.63;;;;;;;17.25;64.55;99628.31;5037841;28;20041;-74
2023/06/02 01:42:06;;;;;;;10.77;6.20;;;;;;;17.19;64.93;99632.94;5042591;28;20446;-74
2023/06/02 01:44:32;;;;;;;11.30;5.73;;;;;;;17.15;65.02;99636.66;5038111;28;20033;-74
2023/06/02 01:46:58;;;;;;;11.23;6.47;;;;;;;17.17;64.74;99632.13;5037732;28;20407;-73
2023/06/02 01:49:23;;;;;;;11.00;6.15;;;;;;;17.18;64.73;99628.53;5038229;28;20159;-75
2023/06/02 01:51:49;;;;;;;12.17;6.33;;;;;;;17.15;64.83;99634.00;5037883;28;20030;-75
2023/06/02 01:54:15;;;;;;;10.60;6.53;;;;;;;17.14;64.86;99634.06;5038000;28;20068;-75
2023/06/02 01:56:40;;;;;;;10.05;6.25;;;;;;;17.07;64.92;99625.47;5037862;28;20061;-74
2023/06/02 01:59:07;;;;;;;12.83;6.30;;;;;;;17.04;65.28;99623.78;5038011;28;20029;-75
2023/06/02 02:01:33;;;;;;;11.10;6.80;;;;;;;17.07;65.14;99622.81;5044793;28;20036;-74
2023/06/02 02:03:59;;;;;;;12.70;6.90;;;;;;;17.08;65.11;99619.22;5037751;28;20029;-75
2023/06/02 02:06:29;;;;;;;11.88;6.60;;;;;;;17.06;65.13;99627.25;5037754;28;20033;-74
2023/06/02 02:08:56;;;;;;;12.93;6.00;;;;;;;17.05;65.50;99628.19;5037465;28;20029;-74
2023/06/02 02:11:21;;;;;;;11.93;6.55;;;;;;;17.06;65.56;99631.72;5037555;28;20120;-75
2023/06/02 02:13:48;;;;;;;10.23;6.27;;;;;;;17.05;65.29;99627.34;5019864;28;20052;-75
2023/06/02 02:16:13;;;;;;;12.57;6.60;;;;;;;17.03;65.35;99629.19;5037454;28;20057;-75
2023/06/02 02:18:40;;;;;;;11.20;6.37;;;;;;;16.99;65.54;99620.47;5037299;28;20464;-73
2023/06/02 02:21:05;;;;;;;13.77;6.17;;;;;;;16.99;65.54;99617.81;5037343;28;20292;-74
2023/06/02 02:23:31;;;;;;;12.38;6.00;;;;;;;16.98;65.51;99620.47;5037365;28;20082;-74
2023/06/02 02:25:56;;;;;;;12.53;6.77;;;;;;;16.96;65.36;99609.94;5037268;28;20044;-74
2023/06/02 02:28:22;;;;;;;12.93;6.53;;;;;;;16.92;65.55;99606.53;5037410;28;20034;-74
2023/06/02 02:30:47;;;;;;;11.50;6.50;;;;;;;16.85;65.44;99605.03;5036986;28;20409;-74
2023/06/02 02:33:13;;;;;;;12.13;6.47;;;;;;;16.82;65.73;99606.94;5037411;28;20039;-74
2023/06/02 02:35:39;;;;;;;10.90;6.43;;;;;;;16.81;65.83;99611.44;5037193;28;20048;-74
2023/06/02 02:38:05;;;;;;;11.95;6.35;;;;;;;16.80;65.69;99617.66;5037569;28;20052;-74
2023/06/02 02:40:30;;;;;;;11.60;6.65;;;;;;;16.79;65.68;99606.16;5039840;28;20116;-73
2023/06/02 02:42:56;;;;;;;13.53;6.67;;;;;;;16.76;65.99;99608.09;5043486;28;20060;-74
2023/06/02 02:45:21;;;;;;;11.83;5.70;;;;;;;16.73;65.99;99610.84;5037110;28;20053;-73
2023/06/02 02:47:47;;;;;;;11.80;6.10;;;;;;;16.73;65.89;99613.50;5036621;28;20056;-74
2023/06/02 02:50:12;;;;;;;12.83;5.60;;;;;;;16.70;65.83;99616.28;5023990;28;20033;-74
2023/06/02 02:52:38;;;;;;;10.48;5.90;;;;;;;16.63;65.90;99613.00;5036904;28;20029;-74
2023/06/02 02:55:04;;;;;;;11.37;6.47;;;;;;;16.58;66.04;99615.88;5018891;28;20029;-74
2023/06/02 02:57:31;;;;;;;12.32;6.85;;;;;;;16.54;66.03;99621.34;5019039;28;20021;-74
2023/06/02 02:59:57;;;;;;;11.35;7.20;;;;;;;16.53;66.08;99616.97;5036737;28;20091;-74
2023/06/02 03:02:22;;;;;;;12.07;6.60;;;;;;;16.51;66.36;99622.31;5039002;28;20022;-74
2023/06/02 03:04:47;;;;;;;11.33;6.33;;;;;;;16.52;66.33;99629.41;5036674;28;20068;-74
2023/06/02 03:07:13;;;;;;;14.03;7.00;;;;;;;16.52;66.27;99624.09;5036666;28;20405;-74
2023/06/02 03:09:38;;;;;;;11.38;6.63;;;;;;;16.44;66.63;99618.19;5036511;28;20508;-74
2023/06/02 03:12:04;;;;;;;12.27;6.53;;;;;;;16.36;66.77;99630.00;5019190;28;20037;-75
2023/06/02 03:14:30;;;;;;;12.73;6.33;;;;;;;16.34;66.86;99623.88;5036754;28;20021;-74
2023/06/02 03:16:56;;;;;;;10.73;5.90;;;;;;;16.34;66.76;99626.53;5036585;28;20026;-73
2023/06/02 03:19:24;;;;;;;10.80;6.55;;;;;;;16.33;67.15;99629.22;5023759;28;20040;-74
2023/06/02 03:21:51;;;;;;;12.23;5.70;;;;;;;16.33;66.94;99622.13;5036650;28;20116;-74
2023/06/02 03:24:18;;;;;;;11.82;6.70;;;;;;;16.26;66.98;99625.94;5036707;28;20385;-74
2023/06/02 03:26:44;;;;;;;10.30;6.40;;;;;;;16.19;67.05;99627.09;5036369;28;20398;-74
2023/06/02 03:29:11;;;;;;;13.15;6.55;;;;;;;16.14;67.33;99629.06;5027661;28;20405;-74
2023/06/02 03:31:36;;;;;;;13.18;7.00;;;;;;;16.11;67.39;99623.88;5016995;28;20033;-74
2023/06/02 03:34:03;;;;;;;22.30;8.10;;;;;;;16.09;67.69;99625.72;5022941;28;20032;-74
2023/06/02 03:36:29;;;;;;;10.70;6.45;;;;;;;16.07;67.39;99624.00;5040746;28;20091;-75
2023/06/02 03:38:54;;;;;;;10.30;6.10;;;;;;;16.11;67.24;99618.56;5022619;28;20033;-74
2023/06/02 03:41:20;;;;;;;12.37;6.60;;;;;;;16.12;67.34;99621.13;5040264;28;20104;-74
2023/06/02 03:43:46;;;;;;;12.20;6.43;;;;;;;16.15;67.36;99625.47;5040348;28;20405;-74
2023/06/02 03:46:11;;;;;;;12.07;6.78;;;;;;;16.15;67.21;99618.38;5047147;28;20044;-74
2023/06/02 03:48:36;;;;;;;11.10;6.57;;;;;;;16.16;67.02;99627.22;5022486;28;20525;-74
2023/06/02 03:51:03;;;;;;;12.93;7.30;;;;;;;16.09;67.63;99628.38;5040212;28;20076;-73
2023/06/02 03:53:30;;;;;;;11.57;6.28;;;;;;;16.03;67.57;99630.31;5040214;28;20017;-74
2023/06/02 03:55:55;;;;;;;14.63;6.95;;;;;;;16.02;67.62;99625.94;5040176;28;20436;-74
2023/06/02 03:58:21;;;;;;;12.90;6.53;;;;;;;16.03;67.65;99629.47;5040176;28;20021;-74
2023/06/02 04:00:48;;;;;;;10.57;5.95;;;;;;;16.03;67.64;99630.31;5042918;28;20037;-74
2023/06/02 04:03:14;;;;;;;11.10;7.03;;;;;;;16.00;67.50;99627.78;5049269;28;20022;-74
2023/06/02 04:05:39;;;;;;;11.43;6.20;;;;;;;15.98;67.24;99634.94;5040068;28;20028;-74
2023/06/02 04:08:06;;;;;;;11.90;6.60;;;;;;;16.00;67.43;99637.53;5041121;28;20037;-74
2023/06/02 04:10:32;;;;;;;12.15;6.35;;;;;;;15.97;67.62;99638.50;5041889;28;20470;-73
2023/06/02 04:12:58;;;;;;;13.27;6.30;;;;;;;15.95;67.54;99639.50;5040101;28;20434;-74
2023/06/02 04:15:24;;;;;;;11.25;6.00;;;;;;;15.94;67.57;99641.28;5039666;28;20048;-73
2023/06/02 04:17:49;;;;;;;11.52;6.80;;;;;;;15.93;68.09;99642.22;5039957;28;20036;-74
2023/06/02 04:20:15;;;;;;;12.70;6.37;;;;;;;15.94;67.73;99641.28;5039766;28;20033;-73
2023/06/02 04:22:40;;;;;;;12.17;6.17;;;;;;;15.93;67.44;99642.22;5021977;28;20021;-73
2023/06/02 04:25:06;;;;;;;11.77;6.63;;;;;;;15.92;67.57;99644.00;5039476;28;20026;-74
2023/06/02 04:27:31;;;;;;;11.95;6.78;;;;;;;15.91;67.72;99649.38;5021970;28;20074;-74
2023/06/02 04:29:58;;;;;;;13.37;6.37;;;;;;;15.85;67.65;99660.19;5039232;28;20028;-73
2023/06/02 04:32:24;;;;;;;11.25;6.60;;;;;;;15.79;67.66;99669.22;5039545;28;20032;-73
2023/06/02 04:34:50;;;;;;;14.55;7.43;;;;;;;15.76;67.74;99672.00;5039585;28;20026;-74
2023/06/02 04:37:16;;;;;;;16.15;7.65;;;;;;;15.74;68.01;99663.22;5021824;28;20425;-73
2023/06/02 04:39:46;;;;;;;14.70;6.93;;;;;;;15.72;67.96;99665.91;5039291;28;20060;-74
2023/06/02 04:42:15;;;;;;;14.63;7.83;;;;;;;15.73;68.05;99666.78;5038969;28;20310;-74
2023/06/02 04:44:44;;;;;;;14.73;8.07;;;;;;;15.73;68.04;99665.00;5039190;28;20071;-74
2023/06/02 04:47:10;;;;;;;14.02;7.00;;;;;;;15.77;67.86;99673.72;5039013;28;20125;-73
2023/06/02 04:49:36;;;;;;;13.88;7.25;;;;;;;15.81;68.13;99674.50;5039341;28;20033;-73
2023/06/02 04:52:05;;;;;;;13.87;7.40;;;;;;;15.84;68.03;99671.72;5039180;28;20025;-74
2023/06/02 04:54:30;;;;;;;15.07;7.57;;;;;;;15.87;67.84;99671.63;5039136;28;20484;-74
2023/06/02 04:56:56;;;;;;;16.33;8.00;;;;;;;15.89;67.81;99677.75;5039129;28;20042;-74
2023/06/02 04:59:23;;;;;;;13.38;7.55;;;;;;;15.95;67.65;99682.00;5021454;28;20093;-73
2023/06/02 05:01:48;;;;;;;17.13;8.00;;;;;;;16.17;66.98;99682.97;5046245;28;20029;-74
2023/06/02 05:04:13;;;;;;;13.60;7.93;;;;;;;16.42;66.20;99681.16;5038885;28;20144;-74
2023/06/02 05:06:39;;;;;;;14.57;7.63;;;;;;;16.68;65.55;99685.50;5038862;28;20025;-74
2023/06/02 05:09:04;;;;;;;13.87;7.67;;;;;;;16.88;65.01;99686.47;5047958;28;20035;-74
2023/06/02 05:11:30;;;;;;;13.67;6.97;;;;;;;17.03;64.88;99682.41;5041437;28;20099;-74
2023/06/02 05:13:56;;;;;;;17.38;7.15;;;;;;;17.17;64.53;99685.34;5038891;28;20220;-74
2023/06/02 05:16:23;;;;;;;13.43;7.00;;;;;;;17.34;64.28;99686.47;5020694;28;20133;-74
2023/06/02 05:18:49;;;;;;;19.63;8.57;;;;;;;17.54;63.73;99682.94;5021025;28;20029;-74
2023/06/02 05:21:14;;;;;;;18.38;7.72;;;;;;;17.69;63.30;99681.41;5038509;28;20018;-73
2023/06/02 05:23:39;;;;;;;15.20;7.20;;;;;;;17.87;62.86;99684.22;5038331;28;20028;-74
2023/06/02 05:26:05;;;;;;;16.27;7.80;;;;;;;18.05;62.53;99686.13;5020603;28;20025;-74
2023/06/02 05:28:30;;;;;;;20.53;8.10;;;;;;;18.14;62.71;99681.28;5038335;28;20021;-74
2023/06/02 05:30:56;;;;;;;18.02;7.80;;;;;;;18.25;62.58;99679.03;5027264;28;20485;-74
2023/06/02 05:33:23;;;;;;;24.43;7.70;;;;;;;18.36;62.19;99675.88;5038834;28;20029;-74
2023/06/02 05:35:48;;;;;;;20.05;7.45;;;;;;;18.45;62.13;99675.44;5038560;28;20597;-74
2023/06/02 05:38:17;;;;;;;20.13;7.40;;;;;;;18.52;61.75;99676.03;5038094;28;20040;-74
2023/06/02 05:40:43;;;;;;;22.15;8.30;;;;;;;18.53;61.65;99679.53;5034419;28;20052;-74
2023/06/02 05:43:08;;;;;;;19.00;8.25;;;;;;;18.57;61.91;99676.66;5036182;28;20034;-74
2023/06/02 05:45:33;;;;;;;23.83;7.83;;;;;;;18.49;62.03;99685.03;5037917;28;20497;-74
2023/06/02 05:47:59;;;;;;;18.80;7.60;;;;;;;18.56;61.68;99688.28;5037844;28;20056;-74
2023/06/02 05:50:24;;;;;;;20.87;7.87;;;;;;;18.51;62.19;99691.13;5033832;28;20032;-74
2023/06/02 05:52:50;;;;;;;15.48;7.68;;;;;;;18.48;62.59;99687.78;5037320;28;20028;-75
2023/06/02 05:55:16;;;;;;;13.73;6.83;;;;;;;18.48;62.38;99691.28;5037795;28;20032;-74
2023/06/02 05:57:42;;;;;;;15.95;7.45;;;;;;;18.50;62.85;99684.09;5016917;28;20565;-74
2023/06/02 06:00:08;;;;;;;15.77;8.00;;;;;;;18.55;63.10;99689.22;5031655;28;20540;-72
2023/06/02 06:02:33;;;;;;;17.13;7.82;;;;;;;18.57;63.36;99689.16;5041068;28;20490;-72
2023/06/02 06:04:59;;;;;;;11.47;6.80;;;;;;;18.61;63.41;99680.91;5033307;28;20435;-71
2023/06/02 06:07:25;;;;;;;15.03;7.70;;;;;;;18.68;63.87;99686.84;5037638;28;20039;-72
2023/06/02 06:09:50;;;;;;;15.02;7.47;;;;;;;18.70;63.87;99686.78;5043252;28;20026;-72
2023/06/02 06:12:15;;;;;;;13.97;7.40;;;;;;;18.77;63.87;99688.19;5037617;28;20098;-73
2023/06/02 06:14:41;;;;;;;15.80;7.70;;;;;;;18.78;63.76;99682.78;5037336;28;20028;-72
2023/06/02 06:17:06;;;;;;;14.03;6.90;;;;;;;18.79;63.50;99686.31;5037179;28;20048;-73
2023/06/02 06:19:32;;;;;;;11.73;6.97;;;;;;;18.89;63.73;99679.59;5037410;28;20260;-72
2023/06/02 06:21:57;;;;;;;14.43;7.03;;;;;;;19.00;63.51;99678.25;5037289;28;20075;-72
2023/06/02 06:24:22;;;;;;;13.20;7.27;;;;;;;19.05;63.29;99685.13;5030709;28;20036;-73
2023/06/02 06:26:48;;;;;;;13.90;7.30;;;;;;;19.08;63.34;99686.75;5030881;28;20660;-72
2023/06/02 06:29:13;;;;;;;13.50;7.10;;;;;;;19.16;63.40;99689.91;5030542;28;20051;-72
2023/06/02 06:31:39;;;;;;;13.03;7.37;;;;;;;19.21;63.59;99690.56;5036993;28;20036;-71
2023/06/02 06:34:05;;;;;;;13.70;7.27;;;;;;;19.24;63.11;99689.53;5029364;28;20028;-71
2023/06/02 06:36:30;;;;;;;13.73;6.82;;;;;;;19.22;62.97;99691.41;5028489;28;20038;-71
2023/06/02 06:38:56;;;;;;;14.63;6.60;;;;;;;19.30;62.86;99693.69;5036387;28;20026;-70
2023/06/02 06:41:22;;;;;;;14.17;7.43;;;;;;;19.36;63.51;99688.94;5032235;28;20025;-71
2023/06/02 06:43:48;;;;;;;10.98;6.85;;;;;;;19.39;62.66;99692.38;5030159;28;20032;-71
2023/06/02 06:46:15;;;;;;;13.20;6.13;;;;;;;19.39;62.63;99695.91;5032785;28;20033;-72
2023/06/02 06:48:41;;;;;;;16.70;6.82;;;;;;;19.44;62.58;99701.03;5031122;28;20050;-72
2023/06/02 06:51:06;;;;;;;11.43;6.13;;;;;;;19.51;62.46;99700.63;5034991;28;20022;-72
2023/06/02 06:53:32;;;;;;;12.32;6.55;;;;;;;19.60;62.48;99696.63;5036246;28;20018;-72
2023/06/02 06:55:58;;;;;;;13.10;6.40;;;;;;;19.74;62.63;99700.41;5019113;28;20025;-71
2023/06/02 06:58:23;;;;;;;13.43;6.40;;;;;;;19.87;61.92;99695.28;5036936;28;20045;-72
2023/06/02 07:00:48;;;;;;;18.03;6.13;;;;;;;19.97;61.26;99691.22;5038640;28;20025;-71
2023/06/02 07:03:14;;;;;;;13.47;6.47;;;;;;;20.12;61.38;99697.56;5019437;28;20025;-72
2023/06/02 07:05:41;;;;;;;13.82;6.15;;;;;;;20.26;61.20;99693.31;5034999;28;20065;-71
2023/06/02 07:08:07;;;;;;;13.88;5.93;;;;;;;20.43;60.46;99697.75;5032108;28;20549;-71
2023/06/02 07:10:32;;;;;;;12.90;5.90;;;;;;;20.59;60.27;99687.91;5040381;28;20183;-70
2023/06/02 07:12:58;;;;;;;9.90;5.17;;;;;;;20.69;59.81;99687.41;5032497;28;20037;-70
2023/06/02 07:15:23;;;;;;;12.63;5.87;;;;;;;20.81;59.61;99684.06;5035009;28;20018;-70
2023/06/02 07:17:48;;;;;;;9.55;5.32;;;;;;;21.01;59.18;99690.13;5018299;28;20109;-70
2023/06/02 07:20:14;;;;;;;11.60;5.23;;;;;;;20.88;59.66;99692.63;5002170;28;20021;-70
2023/06/02 07:22:39;;;;;;;9.87;5.40;;;;;;;21.14;59.48;99690.28;5029934;28;20027;-70
2023/06/02 07:25:06;;;;;;;11.33;5.60;;;;;;;21.30;58.85;99690.25;5033685;28;20031;-70
2023/06/02 07:27:32;;;;;;;10.93;5.40;;;;;;;21.34;57.79;99694.47;5035774;28;20474;-70
2023/06/02 07:29:58;;;;;;;14.02;5.50;;;;;;;21.38;57.42;99688.00;5032457;28;20048;-70
2023/06/02 07:32:24;;;;;;;13.40;4.80;;;;;;;21.52;57.38;99688.03;5035797;28;20060;-70
2023/06/02 07:34:50;;;;;;;10.05;4.82;;;;;;;21.65;57.51;99688.19;5036040;28;20025;-70
2023/06/02 07:37:15;;;;;;;11.67;5.60;;;;;;;21.70;57.01;99682.56;5035642;28;20040;-70
2023/06/02 07:39:40;;;;;;;12.90;5.23;;;;;;;21.72;56.74;99691.38;5012195;28;20029;-70
2023/06/02 07:42:06;;;;;;;9.90;5.13;;;;;;;21.83;56.93;99687.22;5032956;28;20024;-70
2023/06/02 07:44:32;;;;;;;10.35;4.93;;;;;;;21.88;56.70;99696.69;5026429;28;20021;-70
2023/06/02 07:46:58;;;;;;;10.95;5.43;;;;;;;22.13;56.54;99694.34;5030986;28;20044;-70
2023/06/02 07:49:23;;;;;;;15.60;5.70;;;;;;;22.34;55.80;99700.16;5033996;28;20036;-70
2023/06/02 07:51:49;;;;;;;12.93;5.00;;;;;;;22.40;55.78;99690.88;5035946;28;20021;-70
2023/06/02 07:54:14;;;;;;;11.67;4.80;;;;;;;22.54;55.67;99696.25;5035262;28;20032;-70
2023/06/02 07:56:39;;;;;;;11.27;5.00;;;;;;;22.82;55.02;99689.16;5035586;28;20041;-70
2023/06/02 07:59:05;;;;;;;10.47;4.83;;;;;;;22.99;54.16;99689.84;5035880;28;20030;-71
2023/06/02 08:01:30;;;;;;;10.67;5.40;;;;;;;23.07;52.90;99695.59;5037836;28;20021;-70
2023/06/02 08:03:56;;;;;;;10.33;5.40;;;;;;;23.07;53.04;99699.13;5035211;28;20072;-70
2023/06/02 08:06:21;;;;;;;13.90;4.97;;;;;;;23.10;53.18;99692.72;5034897;28;20027;-70
2023/06/02 08:08:46;;;;;;;11.57;5.40;;;;;;;23.20;53.10;99696.50;5015268;28;20272;-70
2023/06/02 08:11:13;;;;;;;10.30;4.57;;;;;;;23.32;52.86;99691.31;5035459;28;20056;-70
2023/06/02 08:13:38;;;;;;;10.85;4.75;;;;;;;23.49;52.54;99695.56;5035357;28;20021;-70
2023/06/02 08:16:05;;;;;;;10.03;5.20;;;;;;;23.61;52.04;99694.72;5037329;28;20033;-71
2023/06/02 08:18:30;;;;;;;9.90;4.65;;;;;;;23.71;51.62;99694.94;5039439;28;20025;-70
2023/06/02 08:20:55;;;;;;;10.93;4.70;;;;;;;23.83;51.75;99692.41;5039622;28;20036;-70
2023/06/02 08:23:21;;;;;;;8.67;4.53;;;;;;;23.98;51.43;99691.31;5039055;28;20026;-69
2023/06/02 08:25:47;;;;;;;8.60;4.50;;;;;;;24.09;51.42;99687.91;5044091;28;20031;-71
2023/06/02 08:28:13;;;;;;;9.33;4.53;;;;;;;24.33;50.97;99682.63;5032372;28;20269;-70
2023/06/02 08:30:42;;;;;;;10.15;4.60;;;;;;;24.48;50.26;99688.75;5038951;28;20500;-70
2023/06/02 08:33:08;;;;;;;8.43;4.63;;;;;;;24.33;50.66;99681.75;5038935;28;20472;-70
2023/06/02 08:35:36;;;;;;;10.13;4.55;;;;;;;24.59;49.99;99682.59;5039439;28;20030;-71
2023/06/02 08:38:03;;;;;;;9.77;4.00;;;;;;;24.73;50.52;99683.44;5039199;28;20025;-71
2023/06/02 08:40:36;;;;;;;9.32;4.18;;;;;;;24.77;48.86;99676.88;5039068;28;20025;-71
2023/06/02 08:43:09;;;;;;;11.60;4.75;;;;;;;24.84;49.24;99675.44;5038854;28;20037;-71
2023/06/02 08:45:35;;;;;;;10.68;4.05;;;;;;;24.89;49.42;99675.97;5038830;28;20079;-70
2023/06/02 08:48:05;;;;;;;10.68;4.60;;;;;;;24.98;48.92;99681.66;5038575;28;20100;-71
2023/06/02 08:50:32;;;;;;;9.20;4.40;;;;;;;25.06;49.28;99677.41;5021455;28;20033;-71
2023/06/02 08:53:02;;;;;;;11.23;4.78;;;;;;;25.19;49.50;99682.72;5037967;28;20083;-71
2023/06/02 08:55:28;;;;;;;9.77;4.25;;;;;;;25.34;48.98;99680.75;5031094;28;20064;-71
2023/06/02 08:57:54;;;;;;;8.80;4.20;;;;;;;25.47;48.30;99685.22;5038644;28;20036;-71
2023/06/02 09:00:20;;;;;;;9.10;4.37;;;;;;;25.63;48.28;99677.69;5038385;28;20088;-71
2023/06/02 09:02:47;;;;;;;12.05;4.63;;;;;;;25.91;48.07;99678.25;5039507;28;20098;-71
2023/06/02 09:05:16;;;;;;;9.65;4.47;;;;;;;26.13;47.52;99673.84;5038347;28;20026;-71
2023/06/02 09:07:43;;;;;;;9.37;4.60;;;;;;;26.22;46.80;99677.69;5038598;28;20025;-71
2023/06/02 09:10:08;;;;;;;9.02;4.30;;;;;;;26.20;47.02;99674.28;5037825;28;20109;-71
2023/06/02 09:12:54;;;;;;;7.70;4.33;;;;;;;26.23;47.44;99674.03;5038225;28;20053;-71
2023/06/02 09:15:19;;;;;;;9.47;3.93;;;;;;;26.39;46.68;99672.78;5037206;28;20284;-71
2023/06/02 09:17:45;;;;;;;9.80;4.35;;;;;;;26.49;46.26;99671.06;5038289;28;20029;-71
2023/06/02 09:20:11;;;;;;;9.20;4.10;;;;;;;26.60;46.24;99662.94;5038229;28;20032;-72
2023/06/02 09:22:57;;;;;;;9.55;4.78;;;;;;;26.59;44.84;99671.19;5037924;28;20037;-70
2023/06/02 09:25:25;;;;;;;9.63;4.20;;;;;;;26.72;45.68;99665.66;5041020;28;20025;-71
2023/06/02 09:27:52;;;;;;;8.45;4.50;;;;;;;26.84;45.57;99664.63;5025783;28;20061;-71
2023/06/02 09:30:18;;;;;;;8.85;4.20;;;;;;;27.02;45.62;99664.13;5035636;28;20026;-71
2023/06/02 09:32:58;;;;;;;10.37;4.30;;;;;;;27.01;45.18;99665.13;5011529;28;20036;-71
2023/06/02 09:35:34;;;;;;;7.43;4.57;;;;;;;27.14;45.56;99665.81;5024865;28;20021;-71
2023/06/02 09:38:00;;;;;;;11.38;5.07;;;;;;;27.26;44.99;99661.22;5037638;28;20162;-71
2023/06/02 09:40:27;;;;;;;9.00;4.35;;;;;;;27.26;45.21;99663.06;5037769;28;20374;-71
2023/06/02 09:42:53;;;;;;;9.85;4.60;;;;;;;27.32;45.29;99662.53;5037594;28;20032;-71
2023/06/02 09:45:18;;;;;;;10.17;4.37;;;;;;;27.35;45.24;99659.56;5037615;28;20013;-71
2023/06/02 09:47:43;;;;;;;8.97;4.17;;;;;;;27.41;44.80;99659.06;5037434;28;20049;-71
2023/06/02 09:50:30;;;;;;;8.17;4.30;;;;;;;27.53;44.87;99664.44;5037565;28;20032;-71
2023/06/02 09:53:07;;;;;;;7.55;3.92;;;;;;;27.52;44.27;99660.91;5035170;28;20060;-71
2023/06/02 09:55:36;;;;;;;8.93;3.92;;;;;;;27.69;44.19;99658.56;5037428;28;20036;-71
2023/06/02 09:58:03;;;;;;;9.73;4.25;;;;;;;27.77;44.29;99656.94;5037511;28;20393;-71
2023/06/02 10:00:29;;;;;;;8.07;4.10;;;;;;;27.94;43.83;99652.75;5037950;28;20032;-71
2023/06/02 10:02:54;;;;;;;10.97;4.90;;;;;;;28.05;42.74;99649.09;5024093;28;20032;-71
2023/06/02 10:05:22;;;;;;;9.50;4.50;;;;;;;28.07;42.97;99652.53;5037202;28;20461;-71
2023/06/02 10:08:25;;;;;;;8.05;3.97;;;;;;;28.19;43.27;99650.63;5019443;28;20549;-71
2023/06/02 10:11:21;;;;;;;9.93;4.13;;;;;;;28.24;43.13;99641.25;5019386;28;20563;-72
2023/06/02 10:13:55;;;;;;;7.55;4.13;;;;;;;28.43;41.61;99640.47;5036932;28;20027;-72
2023/06/02 10:16:34;;;;;;;8.35;4.10;;;;;;;28.54;42.05;99632.22;5036335;28;20083;-71
2023/06/02 10:19:33;;;;;;;7.97;4.32;;;;;;;28.56;41.15;99641.06;5019483;28;20049;-71
2023/06/02 10:22:22;;;;;;;7.53;4.70;;;;;;;28.57;40.23;99639.22;5037170;28;20037;-72
2023/06/02 10:25:02;;;;;;;10.03;4.50;;;;;;;28.58;40.90;99636.41;5035958;28;20497;-71
2023/06/02 10:27:30;;;;;;;11.98;4.68;;;;;;;28.72;40.69;99637.84;5038217;28;20030;-72
2023/06/02 10:29:56;;;;;;;7.78;4.18;;;;;;;28.89;40.87;99636.34;5036709;28;20505;-72
2023/06/02 10:32:27;;;;;;;8.65;4.50;;;;;;;29.08;40.77;99626.50;5037203;28;20037;-72
2023/06/02 10:34:55;;;;;;;8.80;4.33;;;;;;;29.27;38.66;99632.91;5036951;28;20028;-72
2023/06/02 10:37:23;;;;;;;11.02;4.07;;;;;;;29.23;39.09;99633.19;5036997;28;20316;-72
2023/06/02 10:39:52;;;;;;;7.38;4.50;;;;;;;29.33;38.90;99630.50;5036326;28;20029;-72
2023/06/02 10:42:19;;;;;;;8.65;4.40;;;;;;;29.39;38.65;99625.47;5036662;28;20021;-72
2023/06/02 10:44:44;;;;;;;9.32;4.53;;;;;;;29.33;39.33;99629.66;5036841;28;20032;-72
2023/06/02 10:47:19;;;;;;;9.13;4.33;;;;;;;29.48;39.28;99620.09;5018664;28;20045;-72
2023/06/02 10:49:58;;;;;;;6.63;4.20;;;;;;;29.68;39.11;99617.34;5036566;28;20029;-72
2023/06/02 10:52:29;;;;;;;8.38;4.30;;;;;;;29.87;39.02;99612.88;5036601;28;20025;-72
2023/06/02 10:55:07;;;;;;;9.10;4.10;;;;;;;29.88;38.40;99609.16;5023418;28;20029;-72
2023/06/02 10:57:48;;;;;;;8.48;4.57;;;;;;;29.86;37.82;99605.72;5036339;28;20029;-72
2023/06/02 11:00:45;;;;;;;7.65;4.43;;;;;;;29.78;37.46;99607.34;5036426;28;20029;-72
2023/06/02 11:03:10;;;;;;;7.80;3.72;;;;;;;29.94;37.17;99598.56;5024376;28;20052;-72
2023/06/02 11:05:36;;;;;;;9.63;4.13;;;;;;;30.05;36.53;99593.97;5036565;28;20056;-72
2023/06/02 11:08:28;;;;;;;7.45;4.13;;;;;;;30.04;36.18;99592.25;5018739;28;20025;-72
2023/06/02 11:11:00;;;;;;;7.03;3.63;;;;;;;30.24;35.84;99593.00;5034059;28;20036;-72
2023/06/02 11:13:27;;;;;;;6.53;3.50;;;;;;;30.28;35.49;99582.72;5036501;28;20025;-72
2023/06/02 11:15:58;;;;;;;6.47;3.85;;;;;;;30.30;35.06;99583.41;5035909;28;20098;-72
2023/06/02 11:18:31;;;;;;;6.75;4.18;;;;;;;30.35;35.39;99581.97;5036335;28;20100;-72
2023/06/02 11:21:19;;;;;;;9.20;4.10;;;;;;;30.39;35.02;99578.94;5036341;28;20436;-72
2023/06/02 11:23:45;;;;;;;7.55;4.05;;;;;;;30.48;34.51;99578.00;5035805;28;20033;-72
2023/06/02 11:26:13;;;;;;;8.70;4.03;;;;;;;30.55;34.60;99573.69;5036173;28;20024;-72
2023/06/02 11:28:38;;;;;;;6.65;3.65;;;;;;;30.68;34.92;99564.34;5035992;28;20018;-72